Time;durP1;ratioP1;P1;durP2;ratioP2;P2;SDS_P1;SDS_P2;PMS_P1;PMS_P2;Temp;Humidity;BMP_temperature;BMP_pressure;BME280_temperature;BME280_humidity;BME280_pressure;Samples;Min_cycle;Max_cycle;Signal;HPM_P1;HPM_P2
2023/06/20 00:00:08;;;;;;;98.17;93.97;;;15.90;99.90;;;;;;5045733;28;20182;-83
2023/06/20 00:02:33;;;;;;;112.87;108.50;;;15.90;99.90;;;;;;5046651;28;20178;-83
2023/06/20 00:05:00;;;;;;;107.63;103.37;;;15.90;99.90;;;;;;5047077;28;20212;-83
2023/06/20 00:07:26;;;;;;;100.50;96.63;;;15.90;99.90;;;;;;5029173;28;20663;-83
2023/06/20 00:09:52;;;;;;;101.90;97.87;;;15.90;99.90;;;;;;5046938;28;20269;-84
2023/06/20 00:12:19;;;;;;;104.10;100.10;;;16.00;99.90;;;;;;5051113;28;20217;-84
2023/06/20 00:14:45;;;;;;;105.07;100.57;;;16.00;99.90;;;;;;5049684;28;20217;-84
2023/06/20 00:17:10;;;;;;;108.33;103.90;;;15.90;99.90;;;;;;5050652;28;20225;-82
2023/06/20 00:19:36;;;;;;;107.70;103.40;;;15.90;99.90;;;;;;5049987;28;20190;-83
2023/06/20 00:22:05;;;;;;;109.57;105.47;;;16.00;99.90;;;;;;5050726;28;20860;-83
2023/06/20 00:24:32;;;;;;;107.77;103.70;;;16.10;99.90;;;;;;5032991;28;20178;-83
2023/06/20 00:27:02;;;;;;;107.23;102.73;;;16.20;99.90;;;;;;5050850;28;20197;-82
2023/06/20 00:29:29;;;;;;;104.43;100.27;;;16.20;99.90;;;;;;5032789;28;20181;-83
2023/06/20 00:31:54;;;;;;;102.67;98.57;;;16.20;99.90;;;;;;5050669;28;20182;-83
2023/06/20 00:34:20;;;;;;;99.63;95.23;;;16.20;99.90;;;;;;5050083;28;20638;-83
2023/06/20 00:36:46;;;;;;;105.93;101.67;;;16.10;99.90;;;;;;5050783;28;20735;-83
2023/06/20 00:39:12;;;;;;;102.60;98.10;;;16.10;99.90;;;;;;5050436;28;20398;-84
2023/06/20 00:41:39;;;;;;;108.50;104.23;;;16.10;99.90;;;;;;5050349;28;20178;-84
2023/06/20 00:44:04;;;;;;;98.07;93.53;;;16.10;99.90;;;;;;5032895;28;20174;-84
2023/06/20 00:46:32;;;;;;;106.80;102.47;;;16.10;99.90;;;;;;5050217;28;20452;-84
2023/06/20 00:49:04;;;;;;;90.37;86.47;;;15.90;99.90;;;;;;5050046;28;20174;-83
2023/06/20 00:51:30;;;;;;;96.50;92.73;;;15.90;99.90;;;;;;5049981;28;20208;-83
2023/06/20 00:53:56;;;;;;;103.23;99.53;;;15.90;99.90;;;;;;5032503;28;20174;-84
2023/06/20 00:56:26;;;;;;;93.20;89.37;;;15.80;99.90;;;;;;5032327;28;20193;-83
2023/06/20 00:58:52;;;;;;;100.07;96.17;;;15.80;99.90;;;;;;5049293;28;20174;-84
2023/06/20 01:01:18;;;;;;;100.03;96.00;;;15.70;99.90;;;;;;5048754;28;20182;-83
2023/06/20 01:03:48;;;;;;;92.60;88.83;;;15.70;99.90;;;;;;5050168;28;20262;-83
2023/06/20 01:06:23;;;;;;;91.57;87.60;;;15.70;99.90;;;;;;5049818;28;20214;-84
2023/06/20 01:09:18;;;;;;;95.40;91.43;;;15.60;99.90;;;;;;5049971;28;20194;-83
2023/06/20 01:12:02;;;;;;;86.53;82.77;;;15.60;99.90;;;;;;5031783;28;20182;-83
2023/06/20 01:14:44;;;;;;;86.13;82.70;;;15.60;99.90;;;;;;5049726;28;20795;-83
2023/06/20 01:17:27;;;;;;;97.63;93.27;;;15.60;99.90;;;;;;5049980;28;20253;-83
2023/06/20 01:20:22;;;;;;;95.97;92.13;;;15.60;99.90;;;;;;5048743;28;20632;-83
2023/06/20 01:23:08;;;;;;;87.20;83.43;;;15.60;99.90;;;;;;5032082;28;20166;-83
2023/06/20 01:25:59;;;;;;;87.43;84.00;;;15.50;99.90;;;;;;5049424;28;20285;-83
2023/06/20 01:28:38;;;;;;;98.07;94.03;;;15.40;99.90;;;;;;5049581;28;20178;-83
2023/06/20 01:31:11;;;;;;;97.20;93.00;;;15.40;99.90;;;;;;5031725;28;20620;-84
2023/06/20 01:34:11;;;;;;;94.73;90.37;;;15.50;99.90;;;;;;5031446;28;20588;-83
2023/06/20 01:36:46;;;;;;;97.63;93.77;;;15.50;99.90;;;;;;5049132;28;20194;-83
2023/06/20 01:39:17;;;;;;;95.37;91.40;;;15.70;99.90;;;;;;5049276;28;20174;-83
2023/06/20 01:41:46;;;;;;;104.17;99.57;;;15.60;99.90;;;;;;5049469;28;20207;-83
2023/06/20 01:44:14;;;;;;;98.80;94.97;;;15.60;99.90;;;;;;5049274;28;20186;-83
2023/06/20 01:46:40;;;;;;;106.67;101.93;;;15.60;99.90;;;;;;5047979;28;20283;-83
2023/06/20 01:49:07;;;;;;;106.00;101.93;;;15.60;99.90;;;;;;5049086;28;20655;-83
2023/06/20 01:51:33;;;;;;;106.03;101.83;;;15.70;99.90;;;;;;5031073;28;20174;-84
2023/06/20 01:54:03;;;;;;;105.60;101.57;;;15.70;99.90;;;;;;5047931;28;20182;-83
2023/06/20 01:56:31;;;;;;;105.77;101.40;;;15.60;99.90;;;;;;5048848;28;20197;-83
2023/06/20 01:58:59;;;;;;;110.50;106.00;;;15.70;99.90;;;;;;5049322;28;20186;-83
2023/06/20 02:01:26;;;;;;;109.97;105.10;;;15.70;99.90;;;;;;5030977;28;20178;-83
2023/06/20 02:03:55;;;;;;;105.20;101.10;;;15.70;99.90;;;;;;5031242;28;20174;-83
2023/06/20 02:06:23;;;;;;;113.17;108.77;;;15.70;99.90;;;;;;5048595;28;20198;-83
2023/06/20 02:08:50;;;;;;;106.97;102.60;;;15.70;99.90;;;;;;5048896;28;20326;-83
2023/06/20 02:11:17;;;;;;;109.40;104.93;;;15.70;99.90;;;;;;5047316;28;20769;-83
2023/06/20 02:13:45;;;;;;;123.67;118.70;;;15.70;99.90;;;;;;5048918;28;20193;-83
2023/06/20 02:16:12;;;;;;;110.60;105.83;;;15.80;99.90;;;;;;5048874;28;20190;-83
2023/06/20 02:18:38;;;;;;;116.20;111.53;;;15.90;99.90;;;;;;5030745;28;20214;-83
2023/06/20 02:21:12;;;;;;;111.77;107.07;;;15.90;99.90;;;;;;5048683;28;20209;-83
2023/06/20 02:23:40;;;;;;;108.33;103.20;;;15.90;99.90;;;;;;5048529;28;20679;-83
2023/06/20 02:26:14;;;;;;;111.87;107.13;;;15.90;99.90;;;;;;5030713;28;20288;-83
2023/06/20 02:28:43;;;;;;;122.47;117.93;;;15.90;99.90;;;;;;5031044;28;20205;-83
2023/06/20 02:31:15;;;;;;;115.87;111.33;;;15.80;99.90;;;;;;5048312;28;20190;-83
2023/06/20 02:33:42;;;;;;;112.23;107.73;;;15.80;99.90;;;;;;5047844;28;20248;-82
2023/06/20 02:36:09;;;;;;;112.73;107.63;;;15.80;99.90;;;;;;5048437;28;20255;-83
2023/06/20 02:38:35;;;;;;;118.33;113.37;;;15.80;99.90;;;;;;5030551;28;20190;-82
2023/06/20 02:41:01;;;;;;;126.10;120.90;;;15.80;99.90;;;;;;5030750;28;20213;-83
2023/06/20 02:43:28;;;;;;;117.77;112.80;;;15.90;99.90;;;;;;5013763;28;20331;-83
2023/06/20 02:46:12;;;;;;;118.23;113.47;;;16.00;99.90;;;;;;5047981;28;20706;-83
2023/06/20 02:48:51;;;;;;;116.77;112.27;;;16.00;99.90;;;;;;5046964;28;20166;-82
2023/06/20 02:51:23;;;;;;;120.10;115.13;;;16.10;99.90;;;;;;5047810;28;20619;-83
2023/06/20 02:54:15;;;;;;;130.23;125.13;;;16.10;99.90;;;;;;5046979;28;20166;-83
2023/06/20 02:56:46;;;;;;;116.23;111.07;;;16.20;99.90;;;;;;5047968;28;20175;-83
2023/06/20 02:59:13;;;;;;;121.30;116.40;;;16.30;99.90;;;;;;5047751;28;20169;-82
2023/06/20 03:01:43;;;;;;;131.33;125.60;;;16.30;99.90;;;;;;5047845;28;20186;-82
2023/06/20 03:04:09;;;;;;;129.90;124.27;;;16.40;99.90;;;;;;5047566;28;20189;-83
2023/06/20 03:06:37;;;;;;;121.07;116.33;;;16.40;99.90;;;;;;5045893;28;20787;-83
2023/06/20 03:09:04;;;;;;;128.63;123.53;;;16.40;99.90;;;;;;5029453;28;20197;-83
2023/06/20 03:11:30;;;;;;;119.93;115.03;;;16.40;99.90;;;;;;5046080;28;20178;-82
2023/06/20 03:13:55;;;;;;;124.60;119.80;;;16.50;99.90;;;;;;5047410;28;20539;-83
2023/06/20 03:16:24;;;;;;;118.00;113.43;;;16.50;99.90;;;;;;5045732;28;20239;-82
2023/06/20 03:18:51;;;;;;;124.10;118.90;;;16.50;99.90;;;;;;5047649;28;20359;-83
2023/06/20 03:21:18;;;;;;;124.50;119.70;;;16.50;99.90;;;;;;5046624;28;20192;-84
2023/06/20 03:23:44;;;;;;;129.93;124.60;;;16.50;99.90;;;;;;5047479;28;20190;-83
2023/06/20 03:26:10;;;;;;;119.47;114.63;;;16.50;99.90;;;;;;5047635;28;20206;-82
2023/06/20 03:28:38;;;;;;;117.50;112.63;;;16.60;99.90;;;;;;5046376;28;20189;-83
2023/06/20 03:31:04;;;;;;;136.50;130.80;;;16.60;99.90;;;;;;5046425;28;20186;-83
2023/06/20 03:33:30;;;;;;;124.53;119.17;;;16.60;99.90;;;;;;5012733;28;20457;-81
2023/06/20 03:35:56;;;;;;;127.40;122.33;;;16.70;99.90;;;;;;5046249;28;20263;-83
2023/06/20 03:38:21;;;;;;;128.47;123.60;;;16.70;99.90;;;;;;5045616;28;20240;-83
2023/06/20 03:40:49;;;;;;;121.83;117.13;;;16.70;99.90;;;;;;5046179;28;20238;-83
2023/06/20 03:43:15;;;;;;;118.00;113.43;;;16.80;99.90;;;;;;5045828;28;20281;-83
2023/06/20 03:45:41;;;;;;;121.13;116.53;;;16.80;99.90;;;;;;5028323;28;20732;-82
2023/06/20 03:48:06;;;;;;;129.73;124.80;;;16.80;99.90;;;;;;5047145;28;20182;-83
2023/06/20 03:50:32;;;;;;;127.07;122.43;;;16.80;99.90;;;;;;5045592;28;20212;-83
2023/06/20 03:52:58;;;;;;;122.13;117.67;;;16.80;99.90;;;;;;5045832;28;20217;-83
2023/06/20 03:55:24;;;;;;;121.27;116.57;;;16.80;99.90;;;;;;5029146;28;20635;-83
2023/06/20 03:57:49;;;;;;;120.23;115.13;;;16.80;99.90;;;;;;5045780;28;20835;-82
2023/06/20 04:00:15;;;;;;;118.60;114.00;;;16.80;99.90;;;;;;5045820;28;20179;-84
2023/06/20 04:02:41;;;;;;;117.87;113.53;;;16.80;99.90;;;;;;5029212;28;20186;-82
2023/06/20 04:05:10;;;;;;;123.40;118.97;;;16.80;99.90;;;;;;5046698;28;20213;-82
2023/06/20 04:07:36;;;;;;;122.50;117.77;;;16.80;99.90;;;;;;5046686;28;20552;-83
2023/06/20 04:10:05;;;;;;;122.37;118.17;;;16.80;99.90;;;;;;5047230;28;20186;-83
2023/06/20 04:12:31;;;;;;;124.93;120.67;;;16.80;99.90;;;;;;5028995;28;20559;-83
2023/06/20 04:14:56;;;;;;;98.13;94.03;;;16.80;99.90;;;;;;5045722;28;20186;-83
2023/06/20 04:17:22;;;;;;;95.83;92.23;;;16.90;99.90;;;;;;5046880;28;20185;-82
2023/06/20 04:19:48;;;;;;;105.17;101.20;;;16.90;99.90;;;;;;5045817;28;20182;-82
2023/06/20 04:22:14;;;;;;;89.90;86.67;;;16.90;99.90;;;;;;5045476;28;20631;-83
2023/06/20 04:24:43;;;;;;;95.03;91.63;;;17.00;99.90;;;;;;5046734;28;20243;-83
2023/06/20 04:27:10;;;;;;;84.90;81.80;;;17.00;99.90;;;;;;5046645;28;20209;-82
2023/06/20 04:29:36;;;;;;;80.90;78.03;;;17.10;99.90;;;;;;5045231;28;20216;-82
2023/06/20 04:32:02;;;;;;;82.10;78.50;;;17.10;99.90;;;;;;5045801;28;20217;-82
2023/06/20 04:34:27;;;;;;;81.90;78.80;;;17.20;99.90;;;;;;5028658;28;20237;-83
2023/06/20 04:36:53;;;;;;;78.70;75.80;;;17.20;99.90;;;;;;5046881;28;20190;-83
2023/06/20 04:39:19;;;;;;;82.47;79.30;;;17.30;99.90;;;;;;5045283;28;20182;-83
2023/06/20 04:41:44;;;;;;;70.30;66.57;;;17.30;99.90;;;;;;5045385;28;20220;-83
2023/06/20 04:44:10;;;;;;;64.87;62.30;;;17.40;99.90;;;;;;5029075;28;20205;-83
2023/06/20 04:46:36;;;;;;;71.33;68.70;;;17.50;99.90;;;;;;5046252;28;20428;-83
2023/06/20 04:49:02;;;;;;;66.83;64.30;;;17.60;99.90;;;;;;5045699;28;20187;-82
2023/06/20 04:51:27;;;;;;;67.90;65.30;;;17.70;99.90;;;;;;5044935;28;20186;-83
2023/06/20 04:53:53;;;;;;;71.60;69.00;;;17.80;99.90;;;;;;5045078;28;20190;-83
2023/06/20 04:56:20;;;;;;;61.63;59.20;;;17.80;99.90;;;;;;5047202;28;20186;-84
2023/06/20 04:58:47;;;;;;;68.47;65.90;;;17.90;99.90;;;;;;5032383;28;20175;-83
2023/06/20 05:01:14;;;;;;;69.30;66.70;;;18.00;99.90;;;;;;5048942;28;20275;-82
2023/06/20 05:03:43;;;;;;;73.47;70.83;;;18.00;99.90;;;;;;5050249;28;20190;-83
2023/06/20 05:06:17;;;;;;;68.00;65.30;;;18.00;99.90;;;;;;5048767;28;20221;-82
2023/06/20 05:08:46;;;;;;;63.87;61.53;;;18.00;99.90;;;;;;5049913;28;20174;-82
2023/06/20 05:11:12;;;;;;;68.40;65.60;;;18.10;99.90;;;;;;5050181;28;20190;-82
2023/06/20 05:13:38;;;;;;;67.00;64.17;;;18.20;99.90;;;;;;5048332;28;20206;-83
2023/06/20 05:16:04;;;;;;;74.80;71.50;;;18.30;99.90;;;;;;5049232;28;20186;-81
2023/06/20 05:18:30;;;;;;;68.27;65.90;;;18.20;99.90;;;;;;5048657;28;20239;-82
2023/06/20 05:20:56;;;;;;;77.33;74.03;;;18.30;99.90;;;;;;5031870;28;20646;-80
2023/06/20 05:23:24;;;;;;;75.57;72.77;;;18.30;99.90;;;;;;5049840;28;20174;-81
2023/06/20 05:25:49;;;;;;;73.90;71.20;;;18.30;99.90;;;;;;5049353;28;20268;-80
2023/06/20 05:28:15;;;;;;;71.90;69.30;;;18.40;99.90;;;;;;5049025;28;20182;-82
2023/06/20 05:30:41;;;;;;;76.80;74.03;;;18.40;99.90;;;;;;5048861;28;20239;-81
2023/06/20 05:33:08;;;;;;;73.07;70.27;;;18.50;99.90;;;;;;5047718;28;20234;-81
2023/06/20 05:35:34;;;;;;;70.63;67.83;;;18.60;99.90;;;;;;5048895;28;20216;-82
2023/06/20 05:38:00;;;;;;;72.63;69.77;;;18.60;99.90;;;;;;5031876;28;20211;-81
2023/06/20 05:40:26;;;;;;;73.77;71.10;;;18.60;99.90;;;;;;5047917;28;20185;-82
2023/06/20 05:42:52;;;;;;;76.20;73.20;;;18.60;99.90;;;;;;5048238;28;20281;-81
2023/06/20 05:45:18;;;;;;;75.60;72.67;;;18.70;99.90;;;;;;5031114;28;20356;-81
2023/06/20 05:47:44;;;;;;;75.40;72.63;;;18.70;99.90;;;;;;5049169;28;20222;-81
2023/06/20 05:50:10;;;;;;;81.43;78.37;;;18.70;99.90;;;;;;5047706;28;20228;-81
2023/06/20 05:52:36;;;;;;;85.07;81.87;;;18.60;99.90;;;;;;5049018;28;20182;-82
2023/06/20 05:55:03;;;;;;;80.27;77.17;;;18.60;99.90;;;;;;5047500;28;20200;-81
2023/06/20 05:57:28;;;;;;;78.70;75.57;;;18.60;99.90;;;;;;5048730;28;20182;-81
2023/06/20 05:59:54;;;;;;;86.90;83.50;;;18.70;99.90;;;;;;5048827;28;20183;-81
2023/06/20 06:02:23;;;;;;;79.03;76.00;;;18.70;99.90;;;;;;5031053;28;20690;-81
2023/06/20 06:04:49;;;;;;;81.73;78.73;;;18.70;99.90;;;;;;5048722;28;20182;-84
2023/06/20 06:07:15;;;;;;;76.27;73.53;;;18.70;99.90;;;;;;5048928;28;20197;-81
2023/06/20 06:09:41;;;;;;;90.30;86.77;;;18.70;99.90;;;;;;5046881;28;20178;-83
2023/06/20 06:12:07;;;;;;;72.37;69.57;;;18.60;99.90;;;;;;5048602;28;20192;-82
2023/06/20 06:14:33;;;;;;;75.47;72.70;;;18.60;99.90;;;;;;5048853;28;20182;-81
2023/06/20 06:16:59;;;;;;;77.97;74.87;;;18.60;99.90;;;;;;5048361;28;20189;-81
2023/06/20 06:19:24;;;;;;;71.83;69.00;;;18.60;99.90;;;;;;5030830;28;20552;-82
2023/06/20 06:21:50;;;;;;;82.77;79.60;;;18.60;99.90;;;;;;5030652;28;20182;-82
2023/06/20 06:24:16;;;;;;;75.30;72.37;;;18.70;99.90;;;;;;5047447;28;20178;-82
2023/06/20 06:26:42;;;;;;;72.03;69.13;;;18.60;99.90;;;;;;5048639;28;20699;-82
2023/06/20 06:29:08;;;;;;;74.97;71.87;;;18.70;99.90;;;;;;5048801;28;20214;-82
2023/06/20 06:31:34;;;;;;;75.73;72.70;;;18.70;99.90;;;;;;5048337;28;20182;-82
2023/06/20 06:34:02;;;;;;;81.77;78.70;;;18.80;99.90;;;;;;5047888;28;20234;-82
2023/06/20 06:36:34;;;;;;;77.63;74.57;;;18.90;99.90;;;;;;5030577;28;20182;-82
2023/06/20 06:39:00;;;;;;;72.67;69.87;;;18.90;99.90;;;;;;5048441;28;20182;-82
2023/06/20 06:41:26;;;;;;;75.77;72.77;;;19.00;99.90;;;;;;5048137;28;20179;-82
2023/06/20 06:43:52;;;;;;;72.77;70.07;;;19.10;99.90;;;;;;5047267;28;20189;-82
2023/06/20 06:46:18;;;;;;;77.73;74.37;;;19.10;99.90;;;;;;5048298;28;20671;-81
2023/06/20 06:48:45;;;;;;;69.80;67.23;;;19.30;99.90;;;;;;5030417;28;20405;-81
2023/06/20 06:51:11;;;;;;;72.77;69.80;;;19.30;99.90;;;;;;5030662;28;20174;-82
2023/06/20 06:53:36;;;;;;;70.53;67.73;;;19.50;99.90;;;;;;5048074;28;20190;-81
2023/06/20 06:56:02;;;;;;;65.87;63.30;;;19.60;99.90;;;;;;5046834;28;20536;-82
2023/06/20 06:58:28;;;;;;;60.60;58.10;;;19.70;99.90;;;;;;5048440;28;20847;-81
2023/06/20 07:00:54;;;;;;;57.43;55.07;;;19.80;99.90;;;;;;5047913;28;20274;-82
2023/06/20 07:03:20;;;;;;;55.93;53.73;;;19.90;99.90;;;;;;5047767;28;20200;-81
2023/06/20 07:05:46;;;;;;;51.67;49.47;;;20.10;99.90;;;;;;5046391;28;20255;-82
2023/06/20 07:08:11;;;;;;;44.50;42.67;;;20.30;99.90;;;;;;5046377;28;20186;-82
2023/06/20 07:10:37;;;;;;;45.30;43.20;;;20.50;99.90;;;;;;5047543;28;20193;-82
2023/06/20 07:13:05;;;;;;;48.00;45.90;;;20.60;99.90;;;;;;5046671;28;20192;-82
2023/06/20 07:15:32;;;;;;;47.00;44.90;;;20.70;99.90;;;;;;5046053;28;20186;-82
2023/06/20 07:17:58;;;;;;;39.97;38.17;;;20.70;99.90;;;;;;5047485;28;20190;-82
2023/06/20 07:20:23;;;;;;;37.00;34.67;;;20.80;99.90;;;;;;5045947;28;20254;-81
2023/06/20 07:22:49;;;;;;;39.70;37.47;;;20.80;99.90;;;;;;5046045;28;20183;-81
2023/06/20 07:25:18;;;;;;;43.30;41.30;;;20.80;99.90;;;;;;5047193;28;20218;-80
2023/06/20 07:27:43;;;;;;;40.13;38.10;;;20.80;99.90;;;;;;5047312;28;20208;-81
2023/06/20 07:30:09;;;;;;;37.37;35.57;;;20.80;99.90;;;;;;5047638;28;20674;-82
2023/06/20 07:32:35;;;;;;;38.17;36.10;;;20.90;99.90;;;;;;5045719;28;20205;-82
2023/06/20 07:35:01;;;;;;;39.90;37.43;;;20.90;99.90;;;;;;5047144;28;20194;-81
2023/06/20 07:37:27;;;;;;;35.77;33.93;;;20.90;99.90;;;;;;5029456;28;20555;-81
2023/06/20 07:39:52;;;;;;;37.47;35.47;;;21.00;99.90;;;;;;5047082;28;20178;-81
2023/06/20 07:42:18;;;;;;;37.40;34.77;;;21.20;99.90;;;;;;5029557;28;20757;-79
2023/06/20 07:44:44;;;;;;;38.33;36.17;;;21.30;99.90;;;;;;5045684;28;20189;-81
2023/06/20 07:47:10;;;;;;;35.30;33.23;;;21.50;99.90;;;;;;5047207;28;20670;-79
2023/06/20 07:49:35;;;;;;;38.37;36.47;;;21.60;99.90;;;;;;5046831;28;20676;-79
2023/06/20 07:52:01;;;;;;;34.20;32.60;;;21.70;99.90;;;;;;5047086;28;20193;-81
2023/06/20 07:54:27;;;;;;;38.83;36.73;;;21.80;99.90;;;;;;5047027;28;20185;-82
2023/06/20 07:56:53;;;;;;;36.87;34.87;;;21.90;99.90;;;;;;5047048;28;20542;-78
2023/06/20 07:59:19;;;;;;;41.10;38.87;;;22.00;99.90;;;;;;5046955;28;20269;-81
2023/06/20 08:01:45;;;;;;;43.93;41.33;;;22.10;99.90;;;;;;5046808;28;20261;-82
2023/06/20 08:04:10;;;;;;;44.73;42.53;;;22.00;99.90;;;;;;5046720;28;20621;-80
2023/06/20 08:06:36;;;;;;;41.53;39.58;;;22.10;99.90;;;;;;5046998;28;20399;-79
2023/06/20 08:09:02;;;;;;;40.30;38.20;;;22.10;99.90;;;;;;5046006;28;20264;-80
2023/06/20 08:11:29;;;;;;;46.03;43.47;;;22.10;99.90;;;;;;5046167;28;20182;-80
2023/06/20 08:13:55;;;;;;;45.08;42.67;;;22.00;99.90;;;;;;5045750;28;20201;-80
2023/06/20 08:16:21;;;;;;;48.08;45.75;;;21.90;99.90;;;;;;5045630;28;20194;-80
2023/06/20 08:18:46;;;;;;;40.30;37.80;;;21.90;99.90;;;;;;5046737;28;20293;-80
2023/06/20 08:21:12;;;;;;;49.45;46.95;;;21.90;99.90;;;;;;5046534;28;20186;-80
2023/06/20 08:23:38;;;;;;;48.03;45.58;;;21.90;99.90;;;;;;5029229;28;20236;-80
2023/06/20 08:26:03;;;;;;;56.00;53.50;;;22.10;99.90;;;;;;5045405;28;20549;-81
2023/06/20 08:28:29;;;;;;;55.28;52.75;;;22.50;99.90;;;;;;5046016;28;20533;-81
2023/06/20 08:30:55;;;;;;;55.60;53.10;;;23.20;99.90;;;;;;5045412;28;20326;-81
2023/06/20 08:33:20;;;;;;;53.90;51.30;;;23.40;99.90;;;;;;5050686;28;20237;-80
2023/06/20 08:35:47;;;;;;;47.72;45.53;;;23.20;99.90;;;;;;5049271;28;20182;-81
2023/06/20 08:38:13;;;;;;;52.70;50.15;;;23.00;99.90;;;;;;5050600;28;20806;-81
2023/06/20 08:40:39;;;;;;;54.83;52.42;;;22.80;99.90;;;;;;5050439;28;20738;-80
2023/06/20 08:43:05;;;;;;;53.30;51.00;;;22.90;99.90;;;;;;5050563;28;20635;-81
2023/06/20 08:45:32;;;;;;;62.95;60.08;;;23.00;99.90;;;;;;5050405;28;20292;-81
2023/06/20 08:47:58;;;;;;;55.05;52.60;;;22.90;99.90;;;;;;5049427;28;20279;-81
2023/06/20 08:50:28;;;;;;;67.13;64.40;;;23.10;99.90;;;;;;5050553;28;20526;-82
2023/06/20 08:52:55;;;;;;;48.53;46.33;;;23.50;99.90;;;;;;5050410;28;20174;-81
2023/06/20 08:55:21;;;;;;;50.50;48.00;;;23.50;99.90;;;;;;5050308;28;20186;-82
2023/06/20 08:57:48;;;;;;;51.72;49.30;;;23.50;99.90;;;;;;5048916;28;20553;-81
2023/06/20 09:00:18;;;;;;;59.13;56.58;;;23.50;99.90;;;;;;5049940;28;20857;-81
2023/06/20 09:02:43;;;;;;;13.75;12.35;;;23.10;99.90;;;;;;5048883;28;20782;-81
2023/06/20 09:05:09;;;;;;;8.73;7.82;;;23.20;99.90;;;;;;5050055;28;20229;-82
2023/06/20 09:07:41;;;;;;;10.73;7.57;;;23.30;99.90;;;;;;5050153;28;20194;-81
2023/06/20 09:10:08;;;;;;;12.27;7.65;;;23.50;99.90;;;;;;5048821;28;20823;-81
2023/06/20 09:12:59;;;;;;;10.55;9.48;;;23.60;99.90;;;;;;5032335;28;20219;-81
2023/06/20 09:15:27;;;;;;;11.40;8.48;;;23.50;99.90;;;;;;5049769;28;20182;-81
2023/06/20 09:17:59;;;;;;;10.75;9.80;;;23.90;99.90;;;;;;5049977;28;20186;-81
2023/06/20 09:20:27;;;;;;;8.45;7.55;;;24.60;99.90;;;;;;5031961;28;20185;-81
2023/06/20 09:22:53;;;;;;;9.65;8.43;;;24.50;99.90;;;;;;5049863;28;20685;-81
2023/06/20 09:25:21;;;;;;;8.65;7.85;;;24.20;99.90;;;;;;5048219;28;20205;-81
2023/06/20 09:27:47;;;;;;;11.13;8.98;;;24.10;99.90;;;;;;5049452;28;20186;-81
2023/06/20 09:30:13;;;;;;;12.45;11.27;;;23.80;99.90;;;;;;5049566;28;20200;-81
2023/06/20 09:32:40;;;;;;;10.52;9.20;;;23.50;99.90;;;;;;5049457;28;20265;-81
2023/06/20 09:35:08;;;;;;;13.20;12.20;;;23.30;99.90;;;;;;5032216;28;20174;-80
2023/06/20 09:37:44;;;;;;;10.88;9.25;;;23.50;99.90;;;;;;5031959;28;20174;-80
2023/06/20 09:40:27;;;;;;;10.18;9.18;;;23.80;99.90;;;;;;5049482;28;20555;-81
2023/06/20 09:42:56;;;;;;;8.95;8.15;;;24.50;99.90;;;;;;5047898;28;20170;-82
2023/06/20 09:45:22;;;;;;;13.32;9.55;;;24.90;99.90;;;;;;5048922;28;20197;-80
2023/06/20 09:47:48;;;;;;;10.10;8.55;;;25.40;99.90;;;;;;5047992;28;20182;-80
2023/06/20 09:50:19;;;;;;;8.63;7.70;;;25.60;99.90;;;;;;5047894;28;20185;-81
2023/06/20 09:53:00;;;;;;;9.75;8.75;;;25.60;99.90;;;;;;5047910;28;20638;-81
2023/06/20 09:55:26;;;;;;;10.32;8.98;;;25.50;99.90;;;;;;5049164;28;20174;-81
2023/06/20 09:57:58;;;;;;;13.50;8.27;;;25.30;99.90;;;;;;5047384;28;20213;-82
2023/06/20 10:00:27;;;;;;;9.90;8.90;;;25.40;99.90;;;;;;5048704;28;20182;-81
2023/06/20 10:02:54;;;;;;;9.55;8.60;;;25.30;99.90;;;;;;5048941;28;20182;-81
2023/06/20 10:05:21;;;;;;;9.30;8.40;;;25.50;99.90;;;;;;5048995;28;20214;-81
2023/06/20 10:07:48;;;;;;;9.43;8.52;;;25.50;99.90;;;;;;5030988;28;20186;-84
2023/06/20 10:10:16;;;;;;;12.43;8.40;;;25.60;99.90;;;;;;5031167;28;20182;-81
2023/06/20 10:12:44;;;;;;;9.70;8.60;;;25.70;99.90;;;;;;5047396;28;20185;-81
2023/06/20 10:15:13;;;;;;;11.80;8.93;;;25.70;99.90;;;;;;5048350;28;20910;-81
2023/06/20 10:17:46;;;;;;;13.20;8.90;;;26.00;99.90;;;;;;5047164;28;20178;-81
2023/06/20 10:20:33;;;;;;;9.93;9.02;;;26.20;99.90;;;;;;5048550;28;20722;-81
2023/06/20 10:23:05;;;;;;;9.52;8.57;;;26.10;99.90;;;;;;5048272;28;20166;-82
2023/06/20 10:25:32;;;;;;;9.20;8.30;;;26.10;99.90;;;;;;5048389;28;20232;-81
2023/06/20 10:27:58;;;;;;;10.45;8.50;;;26.40;99.90;;;;;;5048394;28;20340;-81
2023/06/20 10:30:49;;;;;;;9.00;8.10;;;26.30;99.90;;;;;;5048596;28;20174;-81
2023/06/20 10:33:17;;;;;;;10.52;9.55;;;26.30;99.90;;;;;;5048119;28;20237;-81
2023/06/20 10:36:06;;;;;;;9.95;9.05;;;26.30;99.90;;;;;;5048198;28;20189;-81
2023/06/20 10:38:39;;;;;;;8.00;7.22;;;26.50;99.90;;;;;;5046727;28;20184;-81
2023/06/20 10:41:21;;;;;;;8.93;7.45;;;26.10;99.90;;;;;;5048603;28;20178;-80
2023/06/20 10:43:58;;;;;;;8.70;7.88;;;26.30;99.90;;;;;;5048314;28;20464;-81
2023/06/20 10:46:47;;;;;;;8.32;7.60;;;26.20;99.90;;;;;;5047609;28;20198;-81
2023/06/20 10:49:13;;;;;;;10.57;6.80;;;26.20;99.90;;;;;;5048180;28;20193;-81
2023/06/20 10:51:46;;;;;;;12.57;8.88;;;26.30;99.90;;;;;;5047955;28;20187;-81
2023/06/20 10:54:12;;;;;;;11.38;8.77;;;26.30;99.90;;;;;;5047563;28;20553;-84
2023/06/20 10:56:38;;;;;;;10.40;9.40;;;26.50;99.90;;;;;;5046507;28;20772;-82
2023/06/20 10:59:14;;;;;;;10.80;9.07;;;26.30;99.90;;;;;;5047648;28;20225;-81
2023/06/20 11:01:40;;;;;;;8.73;7.93;;;26.40;99.90;;;;;;5047515;28;20270;-81
2023/06/20 11:04:11;;;;;;;8.23;7.53;;;26.70;99.90;;;;;;5046491;28;20258;-81
2023/06/20 11:06:38;;;;;;;9.30;8.50;;;27.00;99.90;;;;;;5047525;28;20911;-80
2023/06/20 11:09:04;;;;;;;9.57;8.57;;;27.10;99.90;;;;;;5047630;28;20578;-81
2023/06/20 11:11:37;;;;;;;9.60;8.02;;;26.80;99.90;;;;;;5046369;28;20190;-81
2023/06/20 11:14:14;;;;;;;7.88;7.18;;;27.10;99.90;;;;;;5047642;28;20181;-82
2023/06/20 11:16:41;;;;;;;8.82;7.43;;;27.10;99.90;;;;;;5047630;28;20177;-81
2023/06/20 11:19:07;;;;;;;9.18;8.40;;;26.80;99.90;;;;;;5047552;28;20681;-82
2023/06/20 11:21:33;;;;;;;10.07;9.10;;;27.10;99.90;;;;;;5046072;28;20179;-82
2023/06/20 11:24:03;;;;;;;8.85;8.05;;;27.00;99.90;;;;;;5047475;28;20225;-81
2023/06/20 11:26:34;;;;;;;8.52;7.75;;;27.20;99.90;;;;;;5045969;28;20725;-82
2023/06/20 11:29:04;;;;;;;9.27;8.35;;;26.90;99.90;;;;;;5029689;28;20821;-81
2023/06/20 11:31:30;;;;;;;11.05;9.95;;;26.80;99.90;;;;;;5047499;28;20219;-81
2023/06/20 11:34:08;;;;;;;9.43;8.68;;;26.80;99.90;;;;;;5045859;28;20699;-82
2023/06/20 11:36:35;;;;;;;7.97;7.38;;;26.80;99.90;;;;;;5047491;28;20231;-81
2023/06/20 11:39:09;;;;;;;9.68;8.80;;;26.90;99.90;;;;;;5047375;28;20585;-82
2023/06/20 11:41:35;;;;;;;9.73;8.73;;;27.40;99.90;;;;;;5047246;28;20223;-82
2023/06/20 11:44:02;;;;;;;8.57;7.93;;;27.30;99.90;;;;;;5046772;28;20268;-82
2023/06/20 11:46:28;;;;;;;8.23;7.53;;;27.60;99.90;;;;;;5029561;28;20341;-81
2023/06/20 11:48:58;;;;;;;8.30;7.55;;;27.90;99.90;;;;;;5047372;28;20182;-82
2023/06/20 11:51:26;;;;;;;8.05;7.45;;;27.80;99.90;;;;;;5029462;28;20193;-82
2023/06/20 11:54:08;;;;;;;6.45;6.05;;;28.00;99.90;;;;;;5046872;28;20194;-81
2023/06/20 11:56:34;;;;;;;5.13;4.72;;;27.90;99.90;;;;;;5029485;28;20228;-81
2023/06/20 11:59:00;;;;;;;12.68;11.88;;;27.80;99.90;;;;;;5046860;28;20852;-82
2023/06/20 12:01:25;;;;;;;5.35;4.95;;;27.60;99.90;;;;;;5046148;28;20174;-81
2023/06/20 12:04:10;;;;;;;7.43;6.72;;;27.60;99.90;;;;;;5045635;28;20315;-81
2023/06/20 12:06:37;;;;;;;6.18;5.68;;;27.70;99.90;;;;;;5048543;28;20212;-82
2023/06/20 12:09:03;;;;;;;7.60;7.00;;;27.80;99.90;;;;;;5050767;28;20644;-81
2023/06/20 12:11:29;;;;;;;6.22;5.63;;;28.10;99.90;;;;;;5051060;28;20188;-82
2023/06/20 12:13:56;;;;;;;7.00;6.50;;;27.70;99.90;;;;;;5051075;28;20182;-81
2023/06/20 12:16:22;;;;;;;8.38;7.72;;;28.00;99.90;;;;;;5050089;28;20269;-81
2023/06/20 12:18:49;;;;;;;6.40;5.78;;;27.80;99.90;;;;;;5050885;28;20194;-82
2023/06/20 12:21:15;;;;;;;7.38;6.80;;;27.90;99.90;;;;;;5033031;28;20170;-81
2023/06/20 12:23:41;;;;;;;6.70;6.13;;;27.80;99.90;;;;;;5033254;28;20206;-82
2023/06/20 12:26:07;;;;;;;8.45;7.88;;;28.10;99.90;;;;;;5050398;28;20237;-82
2023/06/20 12:28:35;;;;;;;6.90;6.40;;;27.60;99.90;;;;;;5033064;28;20696;-81
2023/06/20 12:31:01;;;;;;;6.78;6.18;;;27.50;99.90;;;;;;5049610;28;20286;-82